Aviation Digital Data Service (ADDS)

Output produced by METARs form (1446 UTC 23 January 2017)
found at http://aviationweather.gov/adds/metars/
 
KMSS 231141Z 2312/2412 06014G24KT P6SM OVC009 
     TEMPO 2312/2316 OVC011 
     FM231600 06014G24KT P6SM OVC015 
     FM232100 06014G24KT P6SM OVC020 
     FM240900 05014G20KT 6SM -SN OVC018 
     FM241000 05014G20KT 1SM -SN BR OVC015